Time;durP1;ratioP1;P1;durP2;ratioP2;P2;SDS_P1;SDS_P2;PMS_P1;PMS_P2;Temp;Humidity;BMP_temperature;BMP_pressure;BME280_temperature;BME280_humidity;BME280_pressure;Samples;Min_cycle;Max_cycle;Signal;HPM_P1;HPM_P2
2023/12/03 00:00:16;;;;;;;11.57;5.40;;;-3.30;99.90;;;;;;5015069;28;20259;-61
2023/12/03 00:02:42;;;;;;;7.40;4.33;;;-3.30;99.90;;;;;;5014682;28;20220;-61
2023/12/03 00:05:08;;;;;;;12.50;5.70;;;-3.40;99.90;;;;;;5014803;28;20774;-61
2023/12/03 00:07:34;;;;;;;10.43;5.37;;;-3.40;99.90;;;;;;5014462;28;20461;-61
2023/12/03 00:10:00;;;;;;;8.47;4.50;;;-3.40;99.90;;;;;;5014760;28;20422;-61
2023/12/03 00:12:26;;;;;;;9.07;4.43;;;-3.50;99.90;;;;;;5018959;28;20170;-61
2023/12/03 00:14:51;;;;;;;8.23;3.60;;;-3.60;99.90;;;;;;5020566;28;20179;-61
2023/12/03 00:17:17;;;;;;;8.93;4.17;;;-3.70;99.90;;;;;;5014632;28;20472;-61
2023/12/03 00:19:42;;;;;;;9.30;4.30;;;-3.70;99.90;;;;;;5014825;28;20186;-61
2023/12/03 00:22:08;;;;;;;8.80;4.13;;;-3.70;99.90;;;;;;5014577;28;20179;-61
2023/12/03 00:24:34;;;;;;;10.20;4.50;;;-3.70;99.90;;;;;;5014431;28;20190;-61
2023/12/03 00:27:00;;;;;;;8.87;4.77;;;-3.70;99.90;;;;;;5014577;28;20449;-60
2023/12/03 00:29:25;;;;;;;8.00;4.00;;;-3.60;99.90;;;;;;5014439;28;20524;-61
2023/12/03 00:31:52;;;;;;;8.27;3.67;;;-3.70;99.90;;;;;;5018848;28;20174;-61
2023/12/03 00:34:17;;;;;;;8.50;4.97;;;-3.70;99.90;;;;;;5034184;28;20166;-61
2023/12/03 00:36:43;;;;;;;5.57;3.43;;;-3.70;99.90;;;;;;5029924;28;20414;-61
2023/12/03 00:39:08;;;;;;;9.67;4.57;;;-3.70;99.90;;;;;;5014166;28;20182;-61
2023/12/03 00:41:34;;;;;;;10.60;4.50;;;-3.70;99.90;;;;;;5031515;28;20516;-61
2023/12/03 00:43:59;;;;;;;9.70;5.07;;;-3.80;99.90;;;;;;5023678;28;20226;-61
2023/12/03 00:46:25;;;;;;;11.20;4.80;;;-3.80;99.90;;;;;;5014368;28;20203;-61
2023/12/03 00:48:50;;;;;;;8.57;4.57;;;-3.80;99.90;;;;;;5014105;28;20183;-61
2023/12/03 00:51:16;;;;;;;10.37;4.93;;;-3.90;99.90;;;;;;5033589;28;20189;-61
2023/12/03 00:53:42;;;;;;;10.03;4.57;;;-3.90;99.90;;;;;;5028237;28;20521;-61
2023/12/03 00:56:08;;;;;;;8.60;4.70;;;-3.90;99.90;;;;;;5018198;28;20635;-61
2023/12/03 00:58:34;;;;;;;11.33;5.37;;;-3.80;99.90;;;;;;5018424;28;20418;-61
2023/12/03 01:00:59;;;;;;;10.30;4.77;;;-3.90;99.90;;;;;;5017936;28;20422;-61
2023/12/03 01:03:25;;;;;;;13.63;5.37;;;-3.90;99.90;;;;;;5018250;28;20167;-61
2023/12/03 01:05:51;;;;;;;10.57;4.60;;;-3.90;99.90;;;;;;5018246;28;20198;-61
2023/12/03 01:08:16;;;;;;;8.27;5.30;;;-3.80;99.90;;;;;;5017826;28;20187;-61
2023/12/03 01:10:42;;;;;;;11.03;5.77;;;-3.80;99.90;;;;;;5017963;28;20229;-61
2023/12/03 01:13:07;;;;;;;8.70;5.03;;;-3.80;99.90;;;;;;5017868;28;20175;-61
2023/12/03 01:15:33;;;;;;;10.80;5.37;;;-3.70;99.90;;;;;;5018182;28;20184;-61
2023/12/03 01:17:58;;;;;;;12.17;5.37;;;-3.60;99.90;;;;;;5017833;28;20187;-61
2023/12/03 01:20:24;;;;;;;8.87;5.20;;;-3.60;99.90;;;;;;5017824;28;20261;-61
2023/12/03 01:22:49;;;;;;;10.77;5.53;;;-3.60;99.90;;;;;;5017798;28;20278;-61
2023/12/03 01:25:15;;;;;;;8.50;4.97;;;-3.80;99.90;;;;;;5017877;28;20183;-61
2023/12/03 01:27:40;;;;;;;11.10;5.30;;;-3.70;99.90;;;;;;5017523;28;20669;-61
2023/12/03 01:30:06;;;;;;;12.03;4.63;;;-3.70;99.90;;;;;;5017316;28;20298;-60
2023/12/03 01:32:32;;;;;;;9.67;5.30;;;-3.60;99.90;;;;;;5017617;28;20213;-60
2023/12/03 01:34:57;;;;;;;7.00;4.17;;;-3.60;99.90;;;;;;5017493;28;20422;-61
2023/12/03 01:37:23;;;;;;;10.43;5.47;;;-3.60;99.90;;;;;;5017469;28;20674;-61
2023/12/03 01:39:49;;;;;;;10.33;5.83;;;-3.60;99.90;;;;;;5017522;28;20187;-61
2023/12/03 01:42:14;;;;;;;13.03;5.50;;;-3.50;99.90;;;;;;5017456;28;20187;-61
2023/12/03 01:44:40;;;;;;;11.40;5.00;;;-3.50;99.90;;;;;;5017226;28;20179;-61
2023/12/03 01:47:05;;;;;;;10.70;5.17;;;-3.50;99.90;;;;;;5017355;28;20221;-61
2023/12/03 01:49:31;;;;;;;8.83;4.80;;;-3.50;99.90;;;;;;5017806;28;20302;-61
2023/12/03 01:51:58;;;;;;;9.90;5.67;;;-3.50;99.90;;;;;;5017411;28;20206;-61
2023/12/03 01:54:28;;;;;;;15.40;6.00;;;-3.40;99.90;;;;;;5017058;28;20422;-61
2023/12/03 01:56:54;;;;;;;9.50;4.63;;;-3.40;99.90;;;;;;5017192;28;20879;-61
2023/12/03 01:59:21;;;;;;;12.17;5.90;;;-3.50;99.90;;;;;;5016939;28;20783;-61
2023/12/03 02:01:46;;;;;;;14.97;6.37;;;-3.60;99.90;;;;;;5015831;28;20975;-61
2023/12/03 02:04:12;;;;;;;15.13;5.10;;;-3.50;99.90;;;;;;5020076;28;20528;-61
2023/12/03 02:06:37;;;;;;;14.30;5.57;;;-3.50;99.90;;;;;;5036767;28;20217;-61
2023/12/03 02:09:03;;;;;;;10.70;5.30;;;-3.60;99.90;;;;;;5036943;28;20640;-61
2023/12/03 02:11:30;;;;;;;9.70;5.33;;;-3.60;99.90;;;;;;5036845;28;20186;-61
2023/12/03 02:13:56;;;;;;;13.20;5.57;;;-3.60;99.90;;;;;;5033621;28;20190;-61
2023/12/03 02:16:22;;;;;;;11.30;5.03;;;-3.50;99.90;;;;;;5017070;28;20481;-61
2023/12/03 02:18:47;;;;;;;16.20;8.80;;;-3.50;99.90;;;;;;5016571;28;20890;-61
2023/12/03 02:21:13;;;;;;;9.60;5.30;;;-3.60;99.90;;;;;;4997286;23;20767;-61
2023/12/03 02:23:38;;;;;;;12.47;5.63;;;-3.60;99.90;;;;;;4977348;28;20189;-61
2023/12/03 02:26:04;;;;;;;8.90;5.30;;;-3.60;99.90;;;;;;4977431;28;20208;-61
2023/12/03 02:28:29;;;;;;;11.90;4.87;;;-3.70;99.90;;;;;;4980904;28;20183;-61
2023/12/03 02:30:55;;;;;;;13.60;6.03;;;-3.70;99.90;;;;;;4997195;28;20172;-61
2023/12/03 02:33:20;;;;;;;12.20;5.90;;;-3.70;99.90;;;;;;4996948;28;20183;-61
2023/12/03 02:35:47;;;;;;;9.80;5.20;;;-3.70;99.90;;;;;;4996788;28;20179;-61
2023/12/03 02:38:12;;;;;;;10.47;5.93;;;-3.70;99.90;;;;;;4980658;28;20649;-61
2023/12/03 02:40:39;;;;;;;13.27;6.37;;;-3.70;99.90;;;;;;4986934;28;20419;-61
2023/12/03 02:43:05;;;;;;;9.07;4.97;;;-3.70;99.90;;;;;;4996962;28;20529;-61
2023/12/03 02:45:30;;;;;;;13.50;6.03;;;-3.70;99.90;;;;;;4996680;28;20403;-61
2023/12/03 02:47:56;;;;;;;16.80;7.63;;;-3.60;99.90;;;;;;4980247;28;20548;-61
2023/12/03 02:50:21;;;;;;;8.83;4.90;;;-3.70;99.90;;;;;;4977278;28;20259;-61
2023/12/03 02:52:47;;;;;;;18.27;6.40;;;-3.80;99.90;;;;;;4980079;28;20180;-61
2023/12/03 02:55:12;;;;;;;13.33;6.20;;;-3.70;99.90;;;;;;4996459;28;20191;-61
2023/12/03 02:57:38;;;;;;;14.17;7.57;;;-3.70;99.90;;;;;;4996512;28;20262;-61
2023/12/03 03:00:05;;;;;;;13.63;6.00;;;-3.70;99.90;;;;;;4996360;28;20199;-61
2023/12/03 03:02:32;;;;;;;18.50;9.17;;;-3.70;99.90;;;;;;4980133;28;20532;-61
2023/12/03 03:04:57;;;;;;;24.07;10.10;;;-3.70;99.90;;;;;;4976891;28;21249;-61
2023/12/03 03:07:23;;;;;;;13.83;6.97;;;-3.70;99.90;;;;;;4976766;28;20510;-61
2023/12/03 03:09:48;;;;;;;12.50;6.20;;;-3.70;99.90;;;;;;4976688;28;20185;-61
2023/12/03 03:12:14;;;;;;;13.10;6.80;;;-3.70;99.90;;;;;;4979334;28;20675;-61
2023/12/03 03:14:39;;;;;;;14.00;7.20;;;-3.70;99.90;;;;;;4987084;28;20173;-61
2023/12/03 03:17:05;;;;;;;15.47;5.97;;;-3.70;99.90;;;;;;4976728;28;20189;-61
2023/12/03 03:19:30;;;;;;;14.40;6.43;;;-3.60;99.90;;;;;;4980329;28;20680;-61
2023/12/03 03:21:56;;;;;;;9.77;5.97;;;-3.60;99.90;;;;;;4993849;28;20171;-61
2023/12/03 03:24:21;;;;;;;12.10;5.37;;;-3.70;99.90;;;;;;4976243;28;20190;-61
2023/12/03 03:26:47;;;;;;;8.93;5.10;;;-3.60;99.90;;;;;;4991438;28;20195;-61
2023/12/03 03:29:12;;;;;;;9.60;5.83;;;-3.70;99.90;;;;;;4987129;28;20213;-61
2023/12/03 03:31:38;;;;;;;13.63;7.13;;;-3.80;99.90;;;;;;4974630;28;20180;-56
2023/12/03 03:34:03;;;;;;;9.37;5.47;;;-3.90;99.90;;;;;;4974052;28;20188;-56
2023/12/03 03:36:29;;;;;;;14.00;6.53;;;-3.90;99.90;;;;;;4973830;28;20555;-56
2023/12/03 03:38:54;;;;;;;12.10;5.90;;;-3.90;99.90;;;;;;4974128;28;20189;-56
2023/12/03 03:41:20;;;;;;;12.07;6.47;;;-4.00;99.90;;;;;;4973574;28;20709;-56
2023/12/03 03:43:45;;;;;;;10.73;5.13;;;-4.00;99.90;;;;;;4974032;28;20211;-56
2023/12/03 03:46:11;;;;;;;8.83;5.50;;;-4.10;99.90;;;;;;4975109;28;20239;-61
2023/12/03 03:48:37;;;;;;;12.37;6.07;;;-4.20;99.90;;;;;;4976038;28;20203;-61
2023/12/03 03:51:02;;;;;;;13.90;5.70;;;-4.30;99.90;;;;;;4989028;28;20176;-61
2023/12/03 03:53:28;;;;;;;11.73;5.40;;;-4.40;99.90;;;;;;4976050;28;20176;-61
2023/12/03 03:55:53;;;;;;;15.97;7.40;;;-4.60;99.90;;;;;;4975878;28;20185;-61
2023/12/03 03:58:19;;;;;;;17.03;7.70;;;-4.70;99.90;;;;;;4976006;28;20181;-61
2023/12/03 04:00:44;;;;;;;15.13;6.33;;;-4.80;99.90;;;;;;4976008;28;20192;-61
2023/12/03 04:03:10;;;;;;;15.00;6.27;;;-4.90;99.90;;;;;;4975812;28;20223;-61
2023/12/03 04:05:35;;;;;;;10.50;6.00;;;-5.00;99.90;;;;;;4975765;28;20188;-61
2023/12/03 04:08:01;;;;;;;14.27;6.30;;;-5.10;99.90;;;;;;4975563;28;20200;-61
2023/12/03 04:10:26;;;;;;;10.67;5.57;;;-5.20;99.90;;;;;;4975637;28;20283;-61
2023/12/03 04:12:52;;;;;;;20.97;7.63;;;-5.20;99.90;;;;;;4983529;28;20182;-61
2023/12/03 04:15:18;;;;;;;15.97;6.93;;;-5.30;99.90;;;;;;4978066;28;20188;-61
2023/12/03 04:17:44;;;;;;;15.67;5.90;;;-5.30;99.90;;;;;;4975499;28;20231;-61
2023/12/03 04:20:10;;;;;;;14.03;6.60;;;-5.40;99.90;;;;;;4975231;28;20455;-61
2023/12/03 04:22:36;;;;;;;13.20;6.07;;;-5.40;99.90;;;;;;4975660;28;20412;-61
2023/12/03 04:25:01;;;;;;;13.83;6.73;;;-5.50;99.90;;;;;;4976234;28;20423;-61
2023/12/03 04:27:26;;;;;;;13.13;6.70;;;-5.50;99.90;;;;;;4987178;28;20244;-61
2023/12/03 04:29:52;;;;;;;11.90;6.23;;;-5.60;99.90;;;;;;4975379;28;20180;-61
2023/12/03 04:32:17;;;;;;;16.27;7.40;;;-5.70;99.90;;;;;;4982973;28;20627;-61
2023/12/03 04:34:43;;;;;;;12.20;6.00;;;-5.70;99.90;;;;;;4980593;28;20275;-61
2023/12/03 04:37:09;;;;;;;13.50;6.30;;;-5.80;99.90;;;;;;4975670;28;20565;-61
2023/12/03 04:39:35;;;;;;;14.33;6.77;;;-5.80;99.90;;;;;;4975413;28;20195;-61
2023/12/03 04:42:00;;;;;;;11.83;5.53;;;-5.80;99.90;;;;;;4975388;28;20204;-61
2023/12/03 04:44:26;;;;;;;14.30;6.20;;;-5.90;99.90;;;;;;4975127;28;20187;-61
2023/12/03 04:46:52;;;;;;;12.00;5.20;;;-5.90;99.90;;;;;;4975394;28;20257;-60
2023/12/03 04:49:17;;;;;;;14.40;5.80;;;-6.00;99.90;;;;;;4975455;28;20183;-61
2023/12/03 04:51:43;;;;;;;13.40;5.47;;;-6.10;99.90;;;;;;4975064;28;20181;-61
2023/12/03 04:54:08;;;;;;;11.00;5.00;;;-6.10;99.90;;;;;;4975109;28;20175;-61
2023/12/03 04:56:34;;;;;;;13.03;5.57;;;-6.10;99.90;;;;;;4975069;28;20188;-61
2023/12/03 04:58:59;;;;;;;10.50;6.00;;;-6.20;99.90;;;;;;4974972;28;20211;-61
2023/12/03 05:01:25;;;;;;;13.13;5.80;;;-6.40;99.90;;;;;;4975151;28;20188;-61
2023/12/03 05:03:50;;;;;;;12.47;5.87;;;-6.50;99.90;;;;;;4975455;28;20267;-61
2023/12/03 05:06:16;;;;;;;13.50;6.40;;;-6.50;99.90;;;;;;4986412;28;20665;-61
2023/12/03 05:08:41;;;;;;;11.40;6.03;;;-6.60;99.90;;;;;;4974911;28;20192;-61
2023/12/03 05:11:07;;;;;;;10.67;5.40;;;-6.50;99.90;;;;;;4979000;28;20182;-56
2023/12/03 05:13:33;;;;;;;16.40;6.27;;;-6.60;99.90;;;;;;4972528;28;20177;-56
2023/12/03 05:16:01;;;;;;;10.93;5.23;;;-6.60;99.90;;;;;;4973290;28;20629;-60
2023/12/03 05:18:27;;;;;;;14.07;6.10;;;-6.60;99.90;;;;;;4974745;28;20414;-60
2023/12/03 05:20:53;;;;;;;8.13;4.90;;;-6.70;99.90;;;;;;4973434;28;20538;-56
2023/12/03 05:23:19;;;;;;;9.40;4.77;;;;;;;;;;4985135;28;20172;-56
2023/12/03 05:25:44;;;;;;;14.07;5.33;;;-6.60;99.90;;;;;;4992521;28;20180;-61
2023/12/03 05:28:10;;;;;;;13.23;6.20;;;;;;;;;;4989911;28;20513;-61
2023/12/03 05:30:36;;;;;;;18.60;7.77;;;;;;;;;;4974599;28;20255;-60
2023/12/03 05:33:01;;;;;;;9.00;5.07;;;-6.60;99.90;;;;;;4974465;28;20275;-60
2023/12/03 05:35:27;;;;;;;13.83;5.50;;;-6.60;99.90;;;;;;4974602;28;20447;-60
2023/12/03 05:37:52;;;;;;;12.07;6.10;;;-6.80;99.90;;;;;;4975921;28;20642;-60
2023/12/03 05:40:18;;;;;;;12.60;5.60;;;;;;;;;;4978175;28;20184;-60
2023/12/03 05:42:44;;;;;;;11.97;5.43;;;;;;;;;;4978004;28;20703;-61
2023/12/03 05:45:10;;;;;;;18.80;5.63;;;-7.20;99.90;;;;;;4978003;28;20412;-61
2023/12/03 05:47:36;;;;;;;11.13;5.47;;;-6.90;99.90;;;;;;4980297;28;20818;-61
2023/12/03 05:50:04;;;;;;;15.07;6.03;;;;;;;;;;4978466;28;20188;-57
2023/12/03 05:52:29;;;;;;;9.23;4.90;;;-7.10;99.90;;;;;;4975448;28;20418;-56
2023/12/03 05:54:55;;;;;;;11.60;5.27;;;;;;;;;;4975395;28;20500;-60
2023/12/03 05:57:21;;;;;;;15.50;6.37;;;;;;;;;;4977613;28;20179;-60
2023/12/03 05:59:47;;;;;;;13.17;4.50;;;;;;;;;;4977603;28;20862;-60
2023/12/03 06:02:14;;;;;;;11.17;4.70;;;;;;;;;;4978083;28;20470;-60
2023/12/03 06:04:40;;;;;;;8.53;5.13;;;;;;;;;;4990325;28;20889;-60
2023/12/03 06:07:05;;;;;;;11.83;5.37;;;-7.20;99.90;;;;;;4977341;28;20460;-61
2023/12/03 06:09:31;;;;;;;11.97;4.20;;;-7.20;99.90;;;;;;4983424;28;20429;-61
2023/12/03 06:11:56;;;;;;;9.83;4.63;;;-7.40;99.90;;;;;;4984077;28;20181;-61
2023/12/03 06:14:22;;;;;;;11.50;4.30;;;;;;;;;;4977464;28;20188;-61
2023/12/03 06:16:48;;;;;;;11.57;5.50;;;;;;;;;;4977276;28;20185;-61
2023/12/03 06:19:14;;;;;;;8.37;4.00;;;;;;;;;;4976641;28;20434;-61
2023/12/03 06:21:40;;;;;;;17.83;4.70;;;-7.30;99.90;;;;;;4975900;28;20470;-56
2023/12/03 06:24:06;;;;;;;16.60;5.10;;;;;;;;;;4993260;28;20465;-56
2023/12/03 06:26:32;;;;;;;8.63;4.80;;;-7.40;99.90;;;;;;4995835;28;20199;-60
2023/12/03 06:28:57;;;;;;;11.37;5.87;;;-7.50;99.90;;;;;;4997044;28;20439;-60
2023/12/03 06:31:23;;;;;;;10.83;5.20;;;-7.50;99.90;;;;;;4994883;28;20451;-57
2023/12/03 06:33:49;;;;;;;12.10;5.40;;;;;;;;;;4991361;28;20187;-56
2023/12/03 06:36:15;;;;;;;13.77;5.00;;;;;;;;;;4982124;28;20204;-59
2023/12/03 06:38:40;;;;;;;9.40;4.50;;;-7.70;99.90;;;;;;4989610;28;20872;-60
2023/12/03 06:41:06;;;;;;;10.27;5.30;;;;;;;;;;4976921;28;20438;-60
2023/12/03 06:43:32;;;;;;;11.00;4.20;;;;;;;;;;4976978;28;20181;-60
2023/12/03 06:45:59;;;;;;;11.93;5.20;;;;;;;;;;4975454;28;20943;-56
2023/12/03 06:48:24;;;;;;;12.27;6.10;;;;;;;;;;4984238;28;20761;-56
2023/12/03 06:50:50;;;;;;;14.83;5.90;;;;;;;;;;4986769;28;20419;-56
2023/12/03 06:53:16;;;;;;;15.07;5.90;;;-7.50;99.90;;;;;;4974277;28;20537;-56
2023/12/03 06:55:42;;;;;;;20.03;8.10;;;;;;;;;;4974461;28;20459;-56
2023/12/03 06:58:08;;;;;;;20.97;7.80;;;;;;;;;;4986693;28;20578;-56
2023/12/03 07:00:34;;;;;;;19.03;9.07;;;;;;;;;;4974968;28;20471;-60
2023/12/03 07:03:00;;;;;;;19.57;8.03;;;;;;;;;;4976610;28;20271;-61
2023/12/03 07:05:26;;;;;;;12.27;6.43;;;;;;;;;;4976390;28;20216;-61
2023/12/03 07:07:51;;;;;;;14.67;6.70;;;-7.80;99.90;;;;;;4976366;28;20495;-63
2023/12/03 07:10:18;;;;;;;15.50;6.20;;;-7.90;99.90;;;;;;4976249;28;20783;-61
2023/12/03 07:12:43;;;;;;;14.93;6.93;;;-8.00;99.90;;;;;;4982800;28;20184;-61
2023/12/03 07:15:10;;;;;;;16.10;7.20;;;;;;;;;;4995710;28;20414;-61
2023/12/03 07:17:35;;;;;;;17.13;6.47;;;-7.90;99.90;;;;;;4975934;28;20187;-61
2023/12/03 07:20:01;;;;;;;16.80;6.57;;;;;;;;;;4975583;28;20468;-56
2023/12/03 07:22:27;;;;;;;10.80;4.87;;;-8.00;99.90;;;;;;4973291;28;20641;-56
2023/12/03 07:24:53;;;;;;;11.43;5.17;;;-6.60;99.90;;;;;;4974443;28;21233;-59
2023/12/03 07:27:18;;;;;;;10.80;5.90;;;-8.10;99.90;;;;;;4975949;28;20254;-60
2023/12/03 07:29:44;;;;;;;21.20;6.17;;;-8.20;99.90;;;;;;4976185;28;20420;-60
2023/12/03 07:32:10;;;;;;;20.37;7.50;;;-8.10;99.90;;;;;;4976309;28;20256;-60
2023/12/03 07:34:36;;;;;;;14.60;6.60;;;-6.60;99.90;;;;;;4976148;28;20947;-60
2023/12/03 07:37:02;;;;;;;12.40;6.50;;;-8.00;99.90;;;;;;4975920;28;20943;-60
2023/12/03 07:39:28;;;;;;;15.37;6.10;;;-8.00;99.90;;;;;;4988014;28;20648;-61
2023/12/03 07:41:54;;;;;;;13.10;6.23;;;-7.90;99.90;;;;;;4995489;28;20427;-61
2023/12/03 07:44:21;;;;;;;10.77;5.83;;;-7.80;99.90;;;;;;4995529;28;20183;-61
2023/12/03 07:46:46;;;;;;;11.47;5.87;;;-7.80;99.90;;;;;;4995269;28;20462;-61
2023/12/03 07:49:12;;;;;;;13.10;6.97;;;-7.70;99.90;;;;;;4983021;28;21032;-61
2023/12/03 07:51:38;;;;;;;20.30;8.97;;;-7.50;99.90;;;;;;4988360;28;20581;-61
2023/12/03 07:54:04;;;;;;;16.23;7.50;;;-7.00;99.90;;;;;;4975670;28;20415;-61
2023/12/03 07:56:36;;;;;;;18.03;8.20;;;-7.10;99.90;;;;;;4975826;28;20514;-61
2023/12/03 07:59:03;;;;;;;18.37;9.53;;;-6.90;99.90;;;;;;4975521;28;20184;-61
2023/12/03 08:01:28;;;;;;;20.70;9.30;;;-6.60;99.90;;;;;;4981219;28;20419;-60
2023/12/03 08:03:54;;;;;;;32.73;9.53;;;-6.40;99.90;;;;;;4995063;28;20417;-60
2023/12/03 08:06:19;;;;;;;14.87;8.03;;;-6.30;99.90;;;;;;4973255;28;20207;-56
2023/12/03 08:08:45;;;;;;;18.17;8.20;;;-6.10;99.90;;;;;;4972738;28;20220;-56
2023/12/03 08:11:10;;;;;;;16.73;8.93;;;-6.00;99.90;;;;;;4974659;28;20191;-60
2023/12/03 08:13:36;;;;;;;23.87;9.67;;;-5.90;99.90;;;;;;4975492;28;20176;-60
2023/12/03 08:16:05;;;;;;;15.80;7.87;;;-5.90;99.90;;;;;;4974632;28;20184;-56
2023/12/03 08:18:31;;;;;;;17.10;8.60;;;-5.80;99.90;;;;;;4972432;28;21118;-56
2023/12/03 08:20:57;;;;;;;17.57;8.23;;;-5.60;99.90;;;;;;4973148;28;20562;-60
2023/12/03 08:23:23;;;;;;;21.53;8.40;;;-5.50;99.90;;;;;;4974868;28;20230;-61
2023/12/03 08:25:48;;;;;;;16.63;7.43;;;-5.50;99.90;;;;;;4975193;28;20423;-60
2023/12/03 08:28:14;;;;;;;19.63;8.63;;;-5.40;99.90;;;;;;4979708;28;20268;-60
2023/12/03 08:30:39;;;;;;;25.87;9.90;;;-5.30;99.90;;;;;;4975015;28;20760;-60
2023/12/03 08:33:05;;;;;;;21.23;9.67;;;-5.20;99.90;;;;;;4975247;28;20532;-60
2023/12/03 08:35:33;;;;;;;19.30;9.77;;;-5.10;99.90;;;;;;4975127;28;20176;-60
2023/12/03 08:37:59;;;;;;;20.03;8.13;;;-5.00;99.90;;;;;;4975269;28;20181;-61
2023/12/03 08:40:25;;;;;;;17.20;7.00;;;-4.90;99.90;;;;;;4975565;28;20412;-61
2023/12/03 08:42:50;;;;;;;16.60;6.90;;;-4.80;99.90;;;;;;4975246;28;20214;-61
2023/12/03 08:45:16;;;;;;;14.90;6.53;;;-4.60;99.90;;;;;;4994385;28;20219;-61
2023/12/03 08:47:42;;;;;;;19.53;8.07;;;-4.60;99.90;;;;;;4962191;28;20625;-61
2023/12/03 08:50:07;;;;;;;16.00;7.30;;;-4.50;99.90;;;;;;4993177;28;20698;-61
2023/12/03 08:52:33;;;;;;;15.93;7.93;;;-4.30;99.90;;;;;;4994205;28;20873;-61
2023/12/03 08:55:00;;;;;;;17.30;7.50;;;-4.20;99.90;;;;;;4994213;28;20172;-61
2023/12/03 08:57:26;;;;;;;18.83;7.83;;;-4.00;99.90;;;;;;4994444;28;20518;-61
2023/12/03 08:59:53;;;;;;;18.63;8.03;;;-3.70;99.90;;;;;;4994171;28;20517;-61
2023/12/03 09:02:19;;;;;;;16.93;7.80;;;-3.70;99.90;;;;;;4981331;28;20653;-61
2023/12/03 09:04:45;;;;;;;11.90;5.90;;;-3.70;99.90;;;;;;4974834;28;20455;-63
2023/12/03 09:07:10;;;;;;;17.10;7.17;;;-3.70;99.90;;;;;;4973663;28;20518;-60
2023/12/03 09:09:36;;;;;;;18.00;7.40;;;-3.60;99.90;;;;;;4974521;28;20188;-60
2023/12/03 09:12:01;;;;;;;14.03;6.53;;;-3.60;99.90;;;;;;4989266;28;20282;-60
2023/12/03 09:14:27;;;;;;;14.63;7.60;;;-3.50;99.90;;;;;;4987905;28;20180;-60
2023/12/03 09:16:53;;;;;;;21.00;7.83;;;-3.60;99.90;;;;;;4976811;28;20199;-54
2023/12/03 09:19:19;;;;;;;14.50;6.53;;;-3.40;99.90;;;;;;4976434;28;20900;-54
2023/12/03 09:21:44;;;;;;;17.70;6.57;;;-3.40;99.90;;;;;;4976342;28;20204;-55
2023/12/03 09:24:10;;;;;;;13.20;7.23;;;-3.40;99.90;;;;;;4976546;28;20235;-55
2023/12/03 09:26:36;;;;;;;14.40;6.37;;;-3.10;99.90;;;;;;4976264;28;20243;-55
2023/12/03 09:29:01;;;;;;;17.20;8.20;;;-2.90;99.90;;;;;;4976646;28;20288;-54
2023/12/03 09:31:27;;;;;;;21.50;8.50;;;-3.10;99.90;;;;;;4977944;28;20191;-60
2023/12/03 09:33:52;;;;;;;25.00;10.20;;;-2.90;99.90;;;;;;4990311;28;20742;-59
2023/12/03 09:36:18;;;;;;;17.30;8.10;;;-2.90;99.90;;;;;;4977218;28;20175;-59
2023/12/03 09:38:43;;;;;;;15.87;5.83;;;-2.80;99.90;;;;;;4963694;28;20224;-67
2023/12/03 09:41:13;;;;;;;17.70;5.83;;;-2.80;99.90;;;;;;4978109;28;20188;-62
2023/12/03 09:43:41;;;;;;;11.20;5.60;;;-2.70;99.90;;;;;;4961435;28;20670;-61
2023/12/03 09:46:13;;;;;;;14.40;6.53;;;-2.90;99.90;;;;;;4961283;28;20415;-61
2023/12/03 09:48:43;;;;;;;13.30;7.20;;;-2.80;99.90;;;;;;4978017;28;20773;-61
2023/12/03 09:51:12;;;;;;;12.60;6.27;;;-2.70;99.90;;;;;;4979023;28;20427;-61
2023/12/03 09:53:44;;;;;;;13.77;7.03;;;-2.60;99.90;;;;;;4989437;28;20784;-61
2023/12/03 09:56:13;;;;;;;15.07;6.73;;;-2.60;99.90;;;;;;4980648;28;20442;-61
2023/12/03 09:58:39;;;;;;;15.20;7.00;;;-2.40;99.90;;;;;;4988190;28;20821;-61
2023/12/03 10:01:06;;;;;;;12.70;6.77;;;-2.20;99.90;;;;;;4977813;28;20412;-62
2023/12/03 10:03:31;;;;;;;7.60;5.10;;;-2.10;99.90;;;;;;4977786;28;20431;-62
2023/12/03 10:05:57;;;;;;;21.40;7.70;;;-1.90;99.90;;;;;;4977920;28;20419;-63
2023/12/03 10:08:23;;;;;;;14.43;6.43;;;-1.70;99.90;;;;;;4977854;28;20300;-63
2023/12/03 10:10:59;;;;;;;11.37;5.63;;;-1.60;99.90;;;;;;4978017;28;20168;-61
2023/12/03 10:13:26;;;;;;;14.40;7.20;;;-1.40;99.90;;;;;;4960114;28;20161;-61
2023/12/03 10:15:52;;;;;;;14.77;6.90;;;-1.30;99.90;;;;;;4977748;28;20426;-63
2023/12/03 10:18:18;;;;;;;14.13;6.50;;;-1.10;99.90;;;;;;4980840;28;20825;-63
2023/12/03 10:20:44;;;;;;;13.43;6.30;;;-1.10;99.90;;;;;;4990886;28;20736;-63
2023/12/03 10:23:14;;;;;;;14.73;6.97;;;-0.90;99.90;;;;;;4976742;28;20512;-63
2023/12/03 10:25:40;;;;;;;17.70;7.07;;;-0.80;99.90;;;;;;4976917;28;20195;-62
2023/12/03 10:28:07;;;;;;;13.20;5.67;;;-1.00;99.90;;;;;;4977176;28;20451;-62
2023/12/03 10:30:33;;;;;;;16.30;6.43;;;-1.00;99.90;;;;;;4977589;28;20177;-62
2023/12/03 10:32:59;;;;;;;9.53;4.87;;;-0.90;99.90;;;;;;4990521;28;20438;-62
2023/12/03 10:35:27;;;;;;;16.13;6.40;;;-0.90;99.90;;;;;;4996738;28;20407;-62
2023/12/03 10:37:52;;;;;;;13.30;6.40;;;-0.90;99.90;;;;;;4996551;28;20419;-63
2023/12/03 10:40:19;;;;;;;10.70;5.03;;;-0.60;99.90;;;;;;4977436;28;20516;-63
2023/12/03 10:42:45;;;;;;;16.00;6.77;;;-0.70;99.90;;;;;;4977144;28;20188;-63
2023/12/03 10:45:13;;;;;;;24.40;8.03;;;-0.40;99.90;;;;;;4977022;28;20428;-63
2023/12/03 10:47:39;;;;;;;13.07;5.10;;;-0.70;99.90;;;;;;4976923;28;20463;-63
2023/12/03 10:50:07;;;;;;;14.17;6.47;;;-0.50;99.90;;;;;;4976982;28;20424;-63
2023/12/03 10:52:35;;;;;;;9.63;4.97;;;-0.50;99.90;;;;;;4978367;28;20450;-63
2023/12/03 10:55:01;;;;;;;9.17;4.90;;;-0.30;99.90;;;;;;4996513;28;20408;-62
2023/12/03 10:57:29;;;;;;;12.47;5.40;;;-0.80;99.90;;;;;;4981417;28;20420;-62
2023/12/03 11:00:05;;;;;;;9.50;4.43;;;-0.60;99.90;;;;;;4977195;28;20423;-62
2023/12/03 11:02:47;;;;;;;8.27;4.87;;;-0.50;99.90;;;;;;4976693;28;20424;-63
2023/12/03 11:05:25;;;;;;;9.43;5.43;;;-0.20;99.90;;;;;;4976911;28;20406;-63
2023/12/03 11:07:51;;;;;;;13.20;5.00;;;-0.20;99.90;;;;;;4976636;28;20541;-63
2023/12/03 11:10:17;;;;;;;11.67;5.00;;;0.00;99.90;;;;;;4976908;28;20881;-62
2023/12/03 11:12:43;;;;;;;11.10;5.47;;;-0.10;99.90;;;;;;4982819;28;20176;-63
2023/12/03 11:15:09;;;;;;;16.07;5.40;;;0.10;99.90;;;;;;4995772;28;20411;-58
2023/12/03 11:17:44;;;;;;;9.33;5.00;;;0.30;99.90;;;;;;4961568;28;20519;-58
2023/12/03 11:20:14;;;;;;;10.10;5.53;;;0.70;99.90;;;;;;4974286;28;20915;-62
2023/12/03 11:23:08;;;;;;;12.43;5.07;;;0.50;99.90;;;;;;4984669;28;20443;-62
2023/12/03 11:25:38;;;;;;;10.90;4.53;;;0.50;99.90;;;;;;4957325;29;20909;-62
2023/12/03 11:28:03;;;;;;;10.10;4.57;;;0.50;99.90;;;;;;4957201;28;20467;-62
2023/12/03 11:30:40;;;;;;;8.53;3.97;;;0.30;99.70;;;;;;4956500;29;20552;-58
2023/12/03 11:33:07;;;;;;;7.47;3.67;;;0.10;99.90;;;;;;4987032;28;20190;-58
2023/12/03 11:35:33;;;;;;;11.00;5.87;;;0.00;99.90;;;;;;4973559;28;20418;-62
2023/12/03 11:38:00;;;;;;;9.37;4.37;;;0.10;99.90;;;;;;4976116;28;20420;-63
2023/12/03 11:40:33;;;;;;;9.30;4.70;;;0.10;99.90;;;;;;4974707;28;20188;-63
2023/12/03 11:42:59;;;;;;;7.17;3.90;;;0.10;99.90;;;;;;4979991;28;20412;-63
2023/12/03 11:45:26;;;;;;;8.43;4.30;;;0.20;99.90;;;;;;4975931;28;20426;-62
2023/12/03 11:48:11;;;;;;;9.50;5.13;;;-0.10;99.90;;;;;;4990792;28;20199;-62
2023/12/03 11:50:37;;;;;;;9.13;4.33;;;-0.10;99.90;;;;;;4995146;28;20418;-62
2023/12/03 11:53:04;;;;;;;12.27;5.07;;;0.10;99.90;;;;;;4990299;28;20770;-62
2023/12/03 11:55:36;;;;;;;8.70;4.20;;;0.10;99.90;;;;;;4975945;28;20430;-62
2023/12/03 11:58:03;;;;;;;9.17;4.80;;;-0.20;99.90;;;;;;4975784;28;20404;-62
2023/12/03 12:00:28;;;;;;;9.53;4.87;;;-0.10;99.90;;;;;;4975504;28;20550;-62
2023/12/03 12:02:54;;;;;;;11.50;5.40;;;0.00;99.90;;;;;;4975554;28;20917;-62
2023/12/03 12:05:19;;;;;;;11.90;5.27;;;-0.20;99.90;;;;;;4975076;28;20676;-62
2023/12/03 12:08:02;;;;;;;11.20;5.60;;;-0.20;99.90;;;;;;4975052;28;20211;-62
2023/12/03 12:10:32;;;;;;;14.87;7.67;;;0.00;99.90;;;;;;4963542;28;20208;-62
2023/12/03 12:12:59;;;;;;;9.80;5.23;;;-0.20;99.90;;;;;;4974823;28;20422;-62
2023/12/03 12:15:25;;;;;;;12.07;5.70;;;-0.20;99.90;;;;;;4973797;28;20456;-63
2023/12/03 12:17:51;;;;;;;12.50;5.97;;;-0.10;99.90;;;;;;4979335;28;20420;-62
2023/12/03 12:20:23;;;;;;;14.43;5.53;;;-0.20;99.90;;;;;;4974891;28;20855;-61
2023/12/03 12:22:50;;;;;;;10.87;5.80;;;0.00;99.90;;;;;;4974947;28;20550;-62
2023/12/03 12:25:16;;;;;;;14.00;5.43;;;0.00;99.90;;;;;;4974152;28;20443;-62
2023/12/03 12:27:42;;;;;;;11.00;4.97;;;0.00;99.90;;;;;;4974252;28;20742;-62
2023/12/03 12:30:08;;;;;;;9.30;5.33;;;-0.30;99.90;;;;;;4974945;28;20514;-62
2023/12/03 12:32:34;;;;;;;12.73;4.93;;;-0.20;99.90;;;;;;4974505;28;20196;-63
2023/12/03 12:35:02;;;;;;;10.23;5.00;;;-0.20;99.90;;;;;;4974009;28;20415;-61
2023/12/03 12:37:28;;;;;;;11.43;5.03;;;-0.10;99.90;;;;;;4984547;28;20419;-63
2023/12/03 12:40:06;;;;;;;9.63;5.13;;;-0.10;99.90;;;;;;4975806;28;21005;-58
2023/12/03 12:42:31;;;;;;;10.30;4.97;;;0.00;99.90;;;;;;4983684;28;20184;-57